Time;durP1;ratioP1;P1;durP2;ratioP2;P2;SDS_P1;SDS_P2;PMS_P1;PMS_P2;Temp;Humidity;BMP_temperature;BMP_pressure;BME280_temperature;BME280_humidity;BME280_pressure;Samples;Min_cycle;Max_cycle;Signal;HPM_P1;HPM_P2
2023/08/14 00:02:12;;;;;;;7.47;4.93;;;19.10;99.90;;;;;;5033294;28;20929;-70
2023/08/14 00:04:41;;;;;;;4.93;4.43;;;19.10;99.90;;;;;;5032798;28;20505;-69
2023/08/14 00:07:09;;;;;;;6.50;4.27;;;19.10;99.90;;;;;;5034412;28;20485;-69
2023/08/14 00:09:38;;;;;;;5.67;4.70;;;19.10;99.90;;;;;;5036692;28;20486;-70
2023/08/14 00:12:06;;;;;;;6.00;4.50;;;19.00;99.90;;;;;;5036504;28;20464;-70
2023/08/14 00:14:35;;;;;;;5.80;4.20;;;19.00;99.90;;;;;;5036607;28;20479;-70
2023/08/14 00:17:03;;;;;;;5.50;4.40;;;19.00;99.90;;;;;;5037020;28;20482;-69
2023/08/14 00:19:31;;;;;;;5.83;5.10;;;18.90;99.90;;;;;;5036721;28;20979;-70
2023/08/14 00:21:59;;;;;;;6.87;4.90;;;18.90;99.90;;;;;;5036596;28;20577;-70
2023/08/14 00:24:27;;;;;;;8.87;4.80;;;18.90;99.90;;;;;;5036870;28;20858;-69
2023/08/14 00:26:57;;;;;;;6.70;4.50;;;18.90;99.90;;;;;;5036347;28;20439;-69
2023/08/14 00:29:26;;;;;;;6.50;4.00;;;18.80;99.90;;;;;;5036505;28;20529;-69
2023/08/14 00:31:54;;;;;;;6.20;4.67;;;18.80;99.90;;;;;;5035245;28;21021;-69
2023/08/14 00:34:23;;;;;;;5.90;4.70;;;18.80;99.90;;;;;;5035260;28;20497;-69
2023/08/14 00:36:51;;;;;;;5.17;4.67;;;18.70;99.90;;;;;;5034979;28;20439;-69
2023/08/14 00:39:19;;;;;;;5.20;4.70;;;18.70;99.90;;;;;;5036672;28;20804;-69
2023/08/14 00:41:48;;;;;;;5.70;5.13;;;18.70;99.90;;;;;;5034861;28;20481;-70
2023/08/14 00:44:18;;;;;;;5.20;4.60;;;18.70;99.90;;;;;;5034702;28;20466;-70
2023/08/14 00:46:46;;;;;;;8.20;5.00;;;18.60;99.90;;;;;;5036063;28;20443;-69
2023/08/14 00:49:14;;;;;;;5.80;4.67;;;18.60;99.90;;;;;;5034782;28;20437;-69
2023/08/14 00:51:43;;;;;;;4.70;4.30;;;18.60;99.90;;;;;;5036556;28;20450;-69
2023/08/14 00:54:11;;;;;;;6.83;4.80;;;18.50;99.90;;;;;;5035863;28;20433;-70
2023/08/14 00:56:39;;;;;;;5.10;4.60;;;18.50;99.90;;;;;;5035925;28;20501;-69
2023/08/14 00:59:09;;;;;;;7.90;4.93;;;18.40;99.90;;;;;;5034511;28;20523;-69
2023/08/14 01:01:39;;;;;;;5.47;4.97;;;18.40;99.90;;;;;;5036035;28;20430;-70
2023/08/14 01:04:07;;;;;;;5.90;4.87;;;18.40;99.90;;;;;;5034272;28;20480;-69
2023/08/14 01:06:36;;;;;;;5.97;5.20;;;18.40;99.90;;;;;;5034330;28;20450;-70
2023/08/14 01:09:04;;;;;;;6.53;5.73;;;18.40;99.90;;;;;;5034438;28;20477;-70
2023/08/14 01:11:43;;;;;;;6.40;5.80;;;18.30;99.90;;;;;;5034226;28;20485;-70
2023/08/14 01:14:18;;;;;;;6.00;5.40;;;18.30;99.90;;;;;;5035490;28;20433;-70
2023/08/14 01:16:54;;;;;;;5.60;5.10;;;18.30;99.90;;;;;;5035508;28;20469;-69
2023/08/14 01:19:27;;;;;;;7.20;5.40;;;18.20;99.90;;;;;;5034894;28;20956;-69
2023/08/14 01:22:04;;;;;;;5.73;5.13;;;18.20;99.90;;;;;;5035503;28;20425;-69
2023/08/14 01:24:46;;;;;;;5.47;4.83;;;18.20;99.90;;;;;;5034276;28;20478;-69
2023/08/14 01:27:17;;;;;;;4.77;4.37;;;18.10;99.90;;;;;;5035643;28;20473;-69
2023/08/14 01:29:53;;;;;;;5.33;4.93;;;18.10;99.90;;;;;;5034044;28;20943;-69
2023/08/14 01:32:21;;;;;;;6.87;5.40;;;18.10;99.90;;;;;;5035520;28;20507;-69
2023/08/14 01:34:50;;;;;;;5.70;5.10;;;18.10;99.90;;;;;;5033673;28;20553;-69
2023/08/14 01:37:23;;;;;;;5.93;5.33;;;18.10;99.90;;;;;;5035026;28;20435;-69
2023/08/14 01:40:08;;;;;;;5.63;5.00;;;18.00;99.90;;;;;;5034191;28;20425;-69
2023/08/14 01:42:39;;;;;;;5.10;4.40;;;18.00;99.90;;;;;;5035440;28;20397;-69
2023/08/14 01:45:13;;;;;;;6.27;5.13;;;17.90;99.90;;;;;;5033661;28;20447;-69
2023/08/14 01:47:43;;;;;;;6.17;5.67;;;18.00;99.90;;;;;;5033763;28;20998;-69
2023/08/14 01:50:13;;;;;;;5.57;4.73;;;17.90;99.90;;;;;;5034829;28;20951;-69
2023/08/14 01:52:42;;;;;;;5.43;4.93;;;17.90;99.90;;;;;;5034805;28;20422;-70
2023/08/14 01:55:11;;;;;;;5.90;5.10;;;17.90;99.90;;;;;;5033489;28;20443;-70
2023/08/14 01:57:40;;;;;;;6.37;5.53;;;17.90;99.90;;;;;;5033410;28;20495;-70
2023/08/14 02:00:09;;;;;;;6.03;5.43;;;17.80;99.90;;;;;;5033469;28;20490;-70
2023/08/14 02:02:40;;;;;;;6.67;5.10;;;17.80;99.90;;;;;;5034982;28;20424;-70
2023/08/14 02:05:09;;;;;;;6.33;5.73;;;17.80;99.90;;;;;;5034565;28;20932;-69
2023/08/14 02:07:39;;;;;;;7.00;5.50;;;17.70;99.90;;;;;;5033254;28;20983;-70
2023/08/14 02:10:08;;;;;;;6.63;5.97;;;17.70;99.90;;;;;;5033307;28;20450;-71
2023/08/14 02:12:37;;;;;;;8.17;5.50;;;17.70;99.90;;;;;;5033036;28;20458;-69
2023/08/14 02:15:10;;;;;;;6.20;5.50;;;17.70;99.90;;;;;;5033191;28;20489;-69
2023/08/14 02:17:39;;;;;;;5.60;5.10;;;17.60;99.90;;;;;;5034847;28;20474;-69
2023/08/14 02:20:09;;;;;;;5.60;4.90;;;17.60;99.90;;;;;;5032898;28;20536;-69
2023/08/14 02:22:37;;;;;;;6.43;5.83;;;17.60;99.90;;;;;;5032908;28;20554;-70
2023/08/14 02:25:06;;;;;;;6.40;5.60;;;17.60;99.90;;;;;;5034021;28;20546;-69
2023/08/14 02:27:36;;;;;;;7.10;6.30;;;17.60;99.90;;;;;;5034431;28;20774;-69
2023/08/14 02:30:04;;;;;;;6.83;6.23;;;17.50;99.90;;;;;;5033649;28;20410;-69
2023/08/14 02:32:34;;;;;;;9.17;5.83;;;17.50;99.90;;;;;;5034496;28;20439;-69
2023/08/14 02:35:03;;;;;;;7.70;6.13;;;17.50;99.90;;;;;;5033770;28;20436;-69
2023/08/14 02:37:31;;;;;;;6.77;6.27;;;17.50;99.90;;;;;;5033941;28;20418;-69
2023/08/14 02:39:59;;;;;;;7.23;6.53;;;17.50;99.90;;;;;;5032527;28;20544;-69
2023/08/14 02:42:27;;;;;;;6.53;5.80;;;17.40;99.90;;;;;;5032580;28;20482;-69
2023/08/14 02:44:57;;;;;;;7.73;7.00;;;17.40;99.90;;;;;;5032462;28;20470;-70
2023/08/14 02:47:25;;;;;;;7.27;6.40;;;17.40;99.90;;;;;;5032520;28;20447;-69
2023/08/14 02:49:55;;;;;;;7.03;6.27;;;17.40;99.90;;;;;;5033974;28;20973;-70
2023/08/14 02:52:23;;;;;;;6.63;6.03;;;17.40;99.90;;;;;;5032519;28;20469;-69
2023/08/14 02:54:51;;;;;;;7.40;6.17;;;17.30;99.90;;;;;;5032639;28;20782;-69
2023/08/14 02:57:20;;;;;;;7.40;6.50;;;17.30;99.90;;;;;;5032332;28;20512;-70
2023/08/14 02:59:48;;;;;;;7.73;6.60;;;17.30;99.90;;;;;;5032202;28;21004;-70
2023/08/14 03:02:16;;;;;;;7.20;6.50;;;17.30;99.90;;;;;;5033903;28;20502;-70
2023/08/14 03:04:45;;;;;;;7.87;7.27;;;17.30;99.90;;;;;;5033461;28;20803;-69
2023/08/14 03:07:14;;;;;;;7.13;6.50;;;17.20;99.90;;;;;;5032257;28;20447;-69
2023/08/14 03:09:43;;;;;;;9.60;7.37;;;17.20;99.90;;;;;;5032179;28;20497;-70
2023/08/14 03:12:11;;;;;;;7.87;6.43;;;17.20;99.90;;;;;;5033473;28;20425;-69
2023/08/14 03:14:39;;;;;;;13.07;11.80;;;17.20;99.90;;;;;;5033220;28;20454;-69
2023/08/14 03:17:07;;;;;;;10.93;9.90;;;17.10;99.90;;;;;;5033616;28;20960;-70
2023/08/14 03:19:36;;;;;;;10.27;8.13;;;17.10;99.90;;;;;;5031948;28;20473;-69
2023/08/14 03:22:04;;;;;;;7.90;7.20;;;17.10;99.90;;;;;;5031884;28;20447;-69
2023/08/14 03:24:33;;;;;;;8.50;7.70;;;17.10;99.90;;;;;;5032090;28;20474;-69
2023/08/14 03:27:02;;;;;;;7.50;6.87;;;17.10;99.90;;;;;;5033535;28;20911;-70
2023/08/14 03:29:30;;;;;;;7.27;6.50;;;17.00;99.90;;;;;;5031941;28;20417;-70
2023/08/14 03:31:59;;;;;;;8.30;6.73;;;17.00;99.90;;;;;;5031964;28;20445;-69
2023/08/14 03:34:27;;;;;;;8.47;7.07;;;17.00;99.90;;;;;;5031778;28;20931;-69
2023/08/14 03:36:56;;;;;;;7.57;6.87;;;17.00;99.90;;;;;;5033687;28;20421;-69
2023/08/14 03:39:24;;;;;;;9.60;8.70;;;16.90;99.90;;;;;;5031725;28;20476;-69
2023/08/14 03:41:54;;;;;;;8.63;7.83;;;16.90;99.90;;;;;;5032979;28;20443;-69
2023/08/14 03:44:22;;;;;;;8.00;6.90;;;16.90;99.90;;;;;;5037627;28;20433;-69
2023/08/14 03:46:49;;;;;;;6.93;6.30;;;16.90;99.90;;;;;;5036168;28;20429;-69
2023/08/14 03:49:17;;;;;;;7.03;6.33;;;16.90;99.90;;;;;;5035799;28;20448;-70
2023/08/14 03:51:46;;;;;;;9.70;7.50;;;16.80;99.90;;;;;;5035711;28;20425;-69
2023/08/14 03:54:14;;;;;;;7.07;6.53;;;16.80;99.90;;;;;;5035737;28;20499;-69
2023/08/14 03:56:44;;;;;;;7.97;6.40;;;16.80;99.90;;;;;;5035670;28;20467;-70
2023/08/14 03:59:13;;;;;;;6.87;6.30;;;16.80;99.90;;;;;;5037062;28;20466;-70
2023/08/14 04:01:43;;;;;;;7.57;6.97;;;16.80;99.90;;;;;;5035666;28;20979;-70
2023/08/14 04:04:11;;;;;;;7.70;6.90;;;16.80;99.90;;;;;;5037084;28;20448;-70
2023/08/14 04:06:39;;;;;;;7.80;7.10;;;16.80;99.90;;;;;;5037440;28;20409;-69
2023/08/14 04:09:09;;;;;;;7.80;6.60;;;16.70;99.90;;;;;;5035432;28;20505;-70
2023/08/14 04:11:37;;;;;;;6.93;6.23;;;16.70;99.90;;;;;;5035212;28;20425;-70
2023/08/14 04:14:05;;;;;;;8.73;6.67;;;16.70;99.90;;;;;;5035306;28;20480;-70
2023/08/14 04:16:44;;;;;;;13.40;12.00;;;16.70;99.90;;;;;;5035350;28;20439;-70
2023/08/14 04:19:14;;;;;;;12.40;11.10;;;16.70;99.90;;;;;;5035507;28;20441;-70
2023/08/14 04:21:43;;;;;;;12.77;11.43;;;16.70;99.90;;;;;;5035105;28;20424;-70
2023/08/14 04:24:12;;;;;;;8.37;7.57;;;16.60;99.90;;;;;;5035071;28;20444;-70
2023/08/14 04:26:40;;;;;;;12.30;8.30;;;16.60;99.90;;;;;;5035175;28;20493;-70
2023/08/14 04:29:10;;;;;;;7.80;7.10;;;16.60;99.90;;;;;;5035048;28;20429;-70
2023/08/14 04:31:41;;;;;;;7.60;6.90;;;16.60;99.90;;;;;;5035078;28;20414;-70
2023/08/14 04:34:10;;;;;;;7.00;6.40;;;16.60;99.90;;;;;;5036290;28;20445;-70
2023/08/14 04:36:40;;;;;;;8.60;7.20;;;16.60;99.90;;;;;;5035020;28;20969;-70
2023/08/14 04:39:08;;;;;;;7.60;6.40;;;16.60;99.90;;;;;;5034728;28;20448;-70
2023/08/14 04:41:38;;;;;;;7.47;6.57;;;16.60;99.90;;;;;;5034923;28;20443;-70
2023/08/14 04:44:06;;;;;;;8.87;8.00;;;16.60;99.90;;;;;;5035217;28;20496;-70
2023/08/14 04:46:36;;;;;;;10.67;9.77;;;16.60;99.90;;;;;;5036020;28;20410;-70
2023/08/14 04:49:25;;;;;;;10.30;9.30;;;16.60;99.90;;;;;;5034898;28;20446;-70
2023/08/14 04:51:53;;;;;;;9.53;7.53;;;16.60;99.90;;;;;;5036159;28;20497;-70
2023/08/14 04:54:22;;;;;;;8.60;7.77;;;16.60;99.90;;;;;;5034388;28;20475;-70
2023/08/14 04:56:50;;;;;;;8.10;6.80;;;16.60;99.90;;;;;;5035811;28;20919;-70
2023/08/14 04:59:18;;;;;;;8.13;7.17;;;16.60;99.90;;;;;;5035844;28;20424;-69
2023/08/14 05:01:47;;;;;;;8.00;7.27;;;16.60;99.90;;;;;;5034796;28;20537;-70
2023/08/14 05:04:18;;;;;;;8.90;6.93;;;16.60;99.90;;;;;;5034758;28;20860;-70
2023/08/14 05:06:49;;;;;;;8.17;6.33;;;16.70;99.90;;;;;;5034691;28;20417;-72
2023/08/14 05:09:17;;;;;;;10.23;9.33;;;16.60;99.90;;;;;;5035707;28;20441;-70
2023/08/14 05:11:54;;;;;;;15.00;12.83;;;16.70;99.90;;;;;;5034229;28;20511;-70
2023/08/14 05:14:22;;;;;;;11.57;10.47;;;16.70;99.90;;;;;;5034365;28;21170;-70
2023/08/14 05:16:51;;;;;;;11.37;10.27;;;16.70;99.90;;;;;;5034396;28;20488;-70
2023/08/14 05:19:20;;;;;;;9.60;8.70;;;16.80;99.90;;;;;;5034219;28;20472;-70
2023/08/14 05:21:50;;;;;;;10.70;8.83;;;16.80;99.90;;;;;;5034120;28;20544;-70
2023/08/14 05:24:18;;;;;;;8.80;8.00;;;16.80;99.90;;;;;;5034014;28;20832;-70
2023/08/14 05:26:46;;;;;;;9.07;8.17;;;16.90;99.90;;;;;;5035267;28;20826;-70
2023/08/14 05:29:14;;;;;;;8.90;8.00;;;16.90;99.90;;;;;;5035612;28;20464;-70
2023/08/14 05:31:43;;;;;;;7.40;6.70;;;16.90;99.90;;;;;;5035235;28;20526;-70
2023/08/14 05:34:11;;;;;;;8.33;7.53;;;17.00;99.90;;;;;;5033903;28;20470;-70
2023/08/14 05:36:39;;;;;;;9.03;7.43;;;17.00;99.90;;;;;;5033846;28;20859;-70
2023/08/14 05:39:09;;;;;;;8.20;6.90;;;17.00;99.90;;;;;;5033752;28;20414;-70
2023/08/14 05:41:37;;;;;;;7.33;6.60;;;17.00;99.90;;;;;;5035460;28;20934;-70
2023/08/14 05:44:06;;;;;;;7.70;7.10;;;17.10;99.90;;;;;;5034845;28;20869;-70
2023/08/14 05:46:34;;;;;;;8.63;7.90;;;17.10;99.90;;;;;;5035528;28;20738;-69
2023/08/14 05:49:02;;;;;;;9.40;8.60;;;17.20;99.90;;;;;;5035652;28;20410;-70
2023/08/14 05:51:30;;;;;;;10.57;9.60;;;17.20;99.90;;;;;;5035228;28;20529;-70
2023/08/14 05:53:58;;;;;;;7.40;6.80;;;17.30;99.90;;;;;;5034793;28;20976;-70
2023/08/14 05:56:28;;;;;;;11.20;8.50;;;17.30;99.90;;;;;;5035204;28;20413;-70
2023/08/14 05:58:57;;;;;;;11.43;9.93;;;17.40;99.90;;;;;;5034597;28;20413;-70
2023/08/14 06:01:27;;;;;;;10.30;9.30;;;17.40;99.90;;;;;;5033352;28;20966;-69
2023/08/14 06:03:55;;;;;;;10.50;9.37;;;17.50;99.90;;;;;;5034556;28;20956;-70
2023/08/14 06:06:24;;;;;;;10.17;9.03;;;17.60;99.90;;;;;;5034392;28;20450;-70
2023/08/14 06:08:52;;;;;;;10.97;9.10;;;17.70;99.90;;;;;;5034549;28;20493;-70
2023/08/14 06:11:20;;;;;;;11.50;10.40;;;17.90;99.90;;;;;;5034835;28;20437;-70
2023/08/14 06:13:50;;;;;;;10.77;9.77;;;18.10;99.90;;;;;;5034551;28;20486;-70
2023/08/14 06:16:18;;;;;;;9.60;8.70;;;18.20;99.90;;;;;;5034353;28;20409;-70
2023/08/14 06:18:48;;;;;;;9.07;8.20;;;18.40;99.90;;;;;;5034590;28;20859;-70
2023/08/14 06:21:16;;;;;;;10.00;9.10;;;18.70;99.90;;;;;;5032994;28;20471;-70
2023/08/14 06:23:45;;;;;;;9.40;8.60;;;18.90;99.90;;;;;;5033107;28;20472;-70
2023/08/14 06:26:13;;;;;;;10.43;9.17;;;19.10;99.90;;;;;;5034260;28;20439;-70
2023/08/14 06:28:42;;;;;;;8.30;7.53;;;19.30;99.90;;;;;;5034630;28;20443;-70
2023/08/14 06:31:11;;;;;;;8.10;7.37;;;19.50;99.90;;;;;;5034970;28;20525;-70
2023/08/14 06:33:39;;;;;;;7.40;6.70;;;19.70;99.90;;;;;;5034361;28;20489;-70
2023/08/14 06:36:08;;;;;;;7.10;6.40;;;19.90;99.90;;;;;;5034274;28;20531;-70
2023/08/14 06:38:37;;;;;;;7.17;5.83;;;20.10;99.90;;;;;;5034176;28;20443;-70
2023/08/14 06:41:05;;;;;;;5.50;5.00;;;20.30;99.90;;;;;;5034673;28;20466;-70
2023/08/14 06:43:34;;;;;;;6.70;4.67;;;20.50;99.90;;;;;;5033925;28;20454;-70
2023/08/14 06:46:02;;;;;;;7.30;6.10;;;20.70;99.90;;;;;;5034316;28;20956;-70
2023/08/14 06:48:32;;;;;;;7.10;5.50;;;20.90;99.90;;;;;;5034336;28;20445;-70
2023/08/14 06:51:00;;;;;;;6.10;4.50;;;21.00;99.90;;;;;;5034181;28;20439;-70
2023/08/14 06:53:28;;;;;;;6.30;4.20;;;21.20;99.90;;;;;;5033817;28;20454;-70
2023/08/14 06:55:57;;;;;;;10.73;4.33;;;21.40;99.90;;;;;;5034131;28;20470;-70
2023/08/14 06:58:25;;;;;;;4.90;4.13;;;21.50;99.90;;;;;;5034062;28;20542;-70
2023/08/14 07:00:53;;;;;;;4.60;3.77;;;21.70;99.90;;;;;;5034403;28;20474;-70
2023/08/14 07:03:21;;;;;;;4.60;3.40;;;21.80;99.90;;;;;;5034059;28;20992;-70
2023/08/14 07:05:51;;;;;;;3.43;3.10;;;21.90;99.90;;;;;;5034042;28;20435;-70
2023/08/14 07:08:19;;;;;;;3.60;2.80;;;22.00;99.90;;;;;;5033812;28;20442;-70
2023/08/14 07:10:48;;;;;;;4.43;2.90;;;22.00;99.90;;;;;;5033854;28;20833;-70
2023/08/14 07:13:16;;;;;;;3.90;2.83;;;22.00;99.90;;;;;;5033657;28;20459;-70
2023/08/14 07:15:47;;;;;;;5.90;3.43;;;22.10;99.90;;;;;;5033848;28;20493;-70
2023/08/14 07:18:17;;;;;;;3.83;2.87;;;22.10;99.90;;;;;;5037439;28;20430;-70
2023/08/14 07:20:46;;;;;;;8.03;4.57;;;22.10;99.90;;;;;;5035981;28;20431;-70
2023/08/14 07:23:16;;;;;;;5.63;3.27;;;22.10;99.90;;;;;;5035773;28;20479;-70
2023/08/14 07:25:44;;;;;;;8.30;4.70;;;22.20;99.90;;;;;;5034421;28;20449;-70
2023/08/14 07:28:12;;;;;;;3.37;3.00;;;22.20;99.90;;;;;;5034198;28;20526;-71
2023/08/14 07:30:41;;;;;;;4.13;2.80;;;22.20;99.90;;;;;;5034071;28;20466;-71
2023/08/14 07:33:10;;;;;;;6.93;4.90;;;22.20;99.90;;;;;;5033802;28;20454;-70
2023/08/14 07:35:38;;;;;;;7.00;4.13;;;22.20;99.90;;;;;;5033694;28;20434;-70
2023/08/14 07:38:06;;;;;;;5.10;3.27;;;22.20;99.90;;;;;;5034066;28;20526;-70
2023/08/14 07:40:36;;;;;;;6.87;3.00;;;22.30;99.90;;;;;;5033594;28;20442;-69
2023/08/14 07:43:05;;;;;;;4.73;3.37;;;22.30;99.90;;;;;;5033547;28;20482;-70
2023/08/14 07:45:36;;;;;;;9.87;5.50;;;22.30;99.90;;;;;;5033887;28;20455;-70
2023/08/14 07:48:04;;;;;;;7.80;4.20;;;22.30;99.90;;;;;;5033741;28;20539;-70
2023/08/14 07:50:32;;;;;;;6.10;4.40;;;22.40;99.90;;;;;;5033608;28;20435;-69
2023/08/14 07:53:01;;;;;;;5.20;3.20;;;22.40;99.90;;;;;;5033617;28;20461;-70
2023/08/14 07:55:29;;;;;;;4.60;3.53;;;22.50;99.90;;;;;;5033461;28;20778;-70
2023/08/14 07:57:58;;;;;;;4.33;3.53;;;22.50;99.90;;;;;;5033851;28;20470;-70
2023/08/14 08:00:27;;;;;;;4.67;3.50;;;22.60;99.90;;;;;;5033691;28;20522;-70
2023/08/14 08:02:55;;;;;;;5.23;3.50;;;22.60;99.90;;;;;;5033330;28;20467;-70
2023/08/14 08:05:24;;;;;;;4.57;3.80;;;22.60;99.90;;;;;;5033377;28;20442;-70
2023/08/14 08:07:52;;;;;;;5.83;3.83;;;22.60;99.90;;;;;;5033619;28;20534;-70
2023/08/14 08:10:20;;;;;;;6.13;3.50;;;22.60;99.90;;;;;;5033784;28;20446;-70
2023/08/14 08:12:49;;;;;;;4.40;4.00;;;22.60;99.90;;;;;;5033346;28;20451;-70
2023/08/14 08:15:20;;;;;;;5.43;4.90;;;22.60;99.90;;;;;;5033369;28;20439;-70
2023/08/14 08:17:48;;;;;;;5.00;4.10;;;22.60;99.90;;;;;;5033367;28;20465;-70
2023/08/14 08:20:17;;;;;;;6.10;4.10;;;22.60;99.90;;;;;;5032104;28;20447;-70
2023/08/14 08:22:45;;;;;;;5.10;4.17;;;22.60;99.90;;;;;;5033246;28;20474;-70
2023/08/14 08:25:13;;;;;;;5.67;4.23;;;22.60;99.90;;;;;;5032971;28;20563;-70
2023/08/14 08:27:41;;;;;;;4.40;4.00;;;22.60;99.90;;;;;;5033784;28;20470;-70
2023/08/14 08:30:10;;;;;;;5.60;3.93;;;22.60;99.90;;;;;;5037135;28;20443;-70
2023/08/14 08:32:40;;;;;;;6.30;3.77;;;22.60;99.90;;;;;;5036814;28;20842;-70
2023/08/14 08:35:09;;;;;;;8.50;4.33;;;22.60;99.90;;;;;;5035482;28;20533;-70
2023/08/14 08:37:37;;;;;;;6.13;3.77;;;22.60;99.90;;;;;;5037285;28;20446;-70
2023/08/14 08:40:08;;;;;;;8.43;5.50;;;22.60;99.90;;;;;;5036695;28;20439;-70
2023/08/14 08:42:37;;;;;;;6.70;3.83;;;22.70;99.90;;;;;;5039147;28;20505;-71
2023/08/14 08:45:07;;;;;;;8.30;5.37;;;22.70;99.90;;;;;;5041444;28;20462;-71
2023/08/14 08:47:40;;;;;;;9.20;4.50;;;22.70;99.90;;;;;;5038457;28;20542;-70
2023/08/14 08:50:10;;;;;;;7.23;4.47;;;22.70;99.90;;;;;;5037431;28;20437;-71
2023/08/14 08:52:39;;;;;;;4.90;3.83;;;22.80;99.90;;;;;;5038569;28;20435;-71
2023/08/14 08:55:09;;;;;;;5.80;4.10;;;22.80;99.90;;;;;;5039544;28;20929;-70
2023/08/14 08:57:38;;;;;;;5.27;4.60;;;22.90;99.90;;;;;;5037926;28;20431;-70
2023/08/14 09:00:08;;;;;;;4.77;3.80;;;22.90;99.90;;;;;;5037887;28;20438;-71
2023/08/14 09:02:37;;;;;;;10.43;4.83;;;23.00;99.90;;;;;;5037235;28;20573;-71
2023/08/14 09:05:07;;;;;;;4.70;3.77;;;23.00;99.90;;;;;;5036632;28;20917;-71
2023/08/14 09:07:35;;;;;;;7.33;3.90;;;23.10;99.90;;;;;;5036879;28;20504;-71
2023/08/14 09:10:04;;;;;;;6.30;4.20;;;23.10;99.90;;;;;;5036575;28;20523;-70
2023/08/14 09:12:32;;;;;;;6.23;4.47;;;23.10;99.90;;;;;;5036204;28;20478;-70
2023/08/14 09:15:04;;;;;;;9.97;5.17;;;23.10;99.90;;;;;;5036439;28;20505;-70
2023/08/14 09:17:33;;;;;;;5.80;4.70;;;23.10;99.90;;;;;;5035830;28;20494;-70
2023/08/14 09:20:02;;;;;;;7.87;4.93;;;23.20;99.90;;;;;;5036627;28;20450;-71
2023/08/14 09:22:47;;;;;;;10.47;4.93;;;23.20;99.90;;;;;;5036583;28;20466;-71
2023/08/14 09:25:16;;;;;;;8.30;4.83;;;23.30;99.90;;;;;;5036372;28;20435;-71
2023/08/14 09:27:44;;;;;;;6.43;5.30;;;23.30;99.90;;;;;;5036845;28;20443;-71
2023/08/14 09:30:14;;;;;;;9.80;5.37;;;23.30;99.90;;;;;;5036471;28;20435;-71
2023/08/14 09:32:42;;;;;;;7.30;4.30;;;23.40;99.90;;;;;;5036121;28;20431;-71
2023/08/14 09:35:11;;;;;;;7.73;5.03;;;23.40;99.90;;;;;;5036413;28;20875;-71
2023/08/14 09:37:40;;;;;;;7.33;4.37;;;23.50;99.90;;;;;;5036272;28;20473;-71
2023/08/14 09:40:13;;;;;;;9.77;5.23;;;23.50;99.90;;;;;;5035151;28;20530;-71
2023/08/14 09:42:42;;;;;;;9.33;4.90;;;23.60;99.90;;;;;;5036468;28;20461;-70
2023/08/14 09:45:12;;;;;;;6.33;4.53;;;23.60;99.90;;;;;;5036354;28;20485;-71
2023/08/14 09:47:42;;;;;;;5.57;4.60;;;23.70;99.90;;;;;;5035510;28;20799;-71
2023/08/14 09:50:13;;;;;;;7.30;5.07;;;23.70;99.90;;;;;;5036841;28;20423;-71
2023/08/14 09:52:43;;;;;;;5.40;4.47;;;23.80;99.90;;;;;;5036181;28;20463;-71
2023/08/14 09:55:14;;;;;;;7.17;5.60;;;23.70;99.90;;;;;;5036050;28;20427;-71
2023/08/14 09:57:43;;;;;;;6.10;4.60;;;23.70;99.90;;;;;;5035010;28;20530;-71
2023/08/14 10:00:12;;;;;;;10.57;5.73;;;23.70;99.90;;;;;;5036212;28;20526;-71
2023/08/14 10:02:44;;;;;;;5.67;4.43;;;23.70;99.90;;;;;;5035733;28;20828;-71
2023/08/14 10:05:14;;;;;;;5.43;4.30;;;23.80;99.90;;;;;;5036546;28;20837;-71
2023/08/14 10:07:44;;;;;;;8.20;4.90;;;23.90;99.90;;;;;;5036016;28;20435;-70
2023/08/14 10:10:15;;;;;;;5.27;4.43;;;23.90;99.90;;;;;;5036367;28;20954;-70
2023/08/14 10:12:50;;;;;;;7.67;4.90;;;23.90;99.90;;;;;;5035802;28;20538;-71
2023/08/14 10:15:23;;;;;;;7.90;4.10;;;24.00;99.90;;;;;;5035938;28;20825;-71
2023/08/14 10:17:58;;;;;;;5.20;4.13;;;24.10;99.90;;;;;;5037355;28;20431;-71
2023/08/14 10:20:30;;;;;;;5.47;3.97;;;24.10;99.90;;;;;;5039145;28;20419;-70
2023/08/14 10:22:59;;;;;;;10.20;4.97;;;24.20;99.90;;;;;;5037490;28;20558;-70
2023/08/14 10:25:29;;;;;;;7.90;4.23;;;24.20;99.90;;;;;;5036344;28;20462;-71
2023/08/14 10:27:58;;;;;;;6.77;3.90;;;24.30;99.90;;;;;;5036125;28;20793;-70
2023/08/14 10:30:26;;;;;;;5.80;4.43;;;24.30;99.90;;;;;;5036006;28;20864;-70
2023/08/14 10:32:56;;;;;;;7.60;4.00;;;24.40;99.90;;;;;;5035461;28;20550;-70
2023/08/14 10:35:25;;;;;;;5.50;4.57;;;24.40;99.90;;;;;;5035654;28;20819;-71
2023/08/14 10:37:54;;;;;;;5.60;3.37;;;24.40;99.90;;;;;;5035036;28;20435;-70
2023/08/14 10:40:52;;;;;;;6.30;3.50;;;24.50;99.90;;;;;;5034681;28;20423;-71
2023/08/14 10:43:26;;;;;;;5.43;3.40;;;24.50;99.90;;;;;;5034578;28;20557;-70
2023/08/14 10:45:54;;;;;;;4.13;3.27;;;24.60;99.90;;;;;;5033996;28;20427;-71
2023/08/14 10:48:22;;;;;;;5.27;2.90;;;24.60;99.90;;;;;;5034125;28;21015;-71
2023/08/14 10:50:59;;;;;;;5.33;3.10;;;24.70;99.90;;;;;;5034123;28;20470;-71
2023/08/14 10:53:27;;;;;;;5.77;3.20;;;24.70;99.90;;;;;;5033991;28;20516;-71
2023/08/14 10:55:57;;;;;;;8.33;3.70;;;24.80;99.90;;;;;;5033864;28;20435;-71
2023/08/14 10:58:47;;;;;;;5.90;3.30;;;24.80;99.90;;;;;;5034223;28;20841;-71
2023/08/14 11:01:17;;;;;;;6.13;3.20;;;24.90;99.90;;;;;;5034343;28;20415;-71
2023/08/14 11:03:56;;;;;;;5.03;3.10;;;24.90;99.90;;;;;;5034038;28;20483;-71
2023/08/14 11:06:27;;;;;;;5.10;3.57;;;24.90;99.90;;;;;;5033909;28;20498;-71
2023/08/14 11:09:00;;;;;;;5.30;2.90;;;25.00;99.90;;;;;;5032560;28;20482;-71
2023/08/14 11:11:29;;;;;;;4.70;2.83;;;25.00;99.90;;;;;;5033298;28;20442;-71
2023/08/14 11:13:58;;;;;;;6.83;4.00;;;25.10;99.90;;;;;;5033525;28;20455;-71
2023/08/14 11:16:26;;;;;;;5.37;3.10;;;25.10;99.90;;;;;;5032166;28;20451;-71
2023/08/14 11:18:55;;;;;;;5.50;2.33;;;25.10;99.90;;;;;;5033399;28;20501;-71
2023/08/14 11:21:26;;;;;;;7.57;3.20;;;25.20;99.90;;;;;;5033735;28;20870;-71
2023/08/14 11:23:59;;;;;;;4.70;2.70;;;25.30;99.90;;;;;;5033657;28;20470;-71
2023/08/14 11:26:31;;;;;;;5.77;2.43;;;25.30;99.90;;;;;;5032185;28;21035;-71
2023/08/14 11:29:00;;;;;;;3.93;2.50;;;25.30;99.90;;;;;;5033331;28;20430;-71
2023/08/14 11:31:28;;;;;;;4.27;2.97;;;25.40;99.90;;;;;;5033264;28;20434;-71
2023/08/14 11:34:06;;;;;;;4.90;2.90;;;25.40;99.90;;;;;;5033366;28;20916;-71
2023/08/14 11:36:34;;;;;;;3.87;2.80;;;25.40;99.90;;;;;;5033315;28;20442;-71
2023/08/14 11:39:04;;;;;;;4.30;2.93;;;25.50;99.90;;;;;;5033133;28;21013;-71
2023/08/14 11:41:35;;;;;;;6.17;3.10;;;25.50;99.90;;;;;;5033198;28;20538;-71
2023/08/14 11:44:04;;;;;;;4.33;2.57;;;25.60;99.90;;;;;;5033243;28;20471;-71
2023/08/14 11:46:33;;;;;;;9.67;3.40;;;25.60;99.90;;;;;;5033298;28;20431;-71
2023/08/14 11:49:01;;;;;;;4.93;2.80;;;25.60;99.90;;;;;;5033695;28;20439;-71
2023/08/14 11:51:30;;;;;;;4.60;3.27;;;25.60;99.90;;;;;;5033355;28;20435;-71
2023/08/14 11:53:59;;;;;;;8.17;3.93;;;25.70;99.90;;;;;;5033846;28;20501;-70
2023/08/14 11:56:27;;;;;;;5.00;3.10;;;25.70;99.90;;;;;;5031958;28;20443;-71
2023/08/14 11:58:57;;;;;;;4.10;2.80;;;25.80;99.90;;;;;;5033129;28;20896;-71
2023/08/14 12:01:36;;;;;;;4.40;3.00;;;25.80;99.90;;;;;;5033459;28;20446;-71
2023/08/14 12:04:06;;;;;;;7.80;3.80;;;25.90;99.90;;;;;;5036114;28;20466;-70
2023/08/14 12:06:35;;;;;;;3.40;2.67;;;25.90;99.90;;;;;;5037238;28;20944;-71
2023/08/14 12:09:08;;;;;;;4.23;3.50;;;26.00;99.90;;;;;;5036974;28;20447;-71
2023/08/14 12:11:38;;;;;;;5.00;2.40;;;26.00;99.90;;;;;;5037016;28;20457;-71
2023/08/14 12:14:08;;;;;;;6.07;3.40;;;25.90;99.90;;;;;;5037051;28;20454;-71
2023/08/14 12:16:40;;;;;;;5.10;2.83;;;25.90;99.90;;;;;;5036743;28;20419;-71
2023/08/14 12:19:09;;;;;;;4.77;2.80;;;25.90;99.90;;;;;;5037284;28;20430;-71
2023/08/14 12:21:38;;;;;;;4.87;3.50;;;26.00;99.90;;;;;;5036572;28;20466;-71
2023/08/14 12:24:07;;;;;;;3.83;3.00;;;26.00;99.90;;;;;;5036523;28;20466;-71
2023/08/14 12:26:42;;;;;;;5.57;3.47;;;26.10;99.90;;;;;;5035580;28;20438;-71
2023/08/14 12:29:14;;;;;;;5.93;3.50;;;26.20;99.90;;;;;;5036680;28;20920;-70
2023/08/14 12:31:42;;;;;;;4.67;3.60;;;26.20;99.90;;;;;;5036405;28;20442;-71
2023/08/14 12:34:12;;;;;;;5.97;3.60;;;26.30;99.90;;;;;;5036565;28;20447;-71
2023/08/14 12:36:40;;;;;;;5.20;2.83;;;26.30;99.90;;;;;;5036396;28;20940;-71
2023/08/14 12:39:08;;;;;;;3.83;3.13;;;26.30;99.90;;;;;;5036275;28;20932;-71
2023/08/14 12:41:37;;;;;;;5.00;3.53;;;26.30;99.90;;;;;;5036484;28;20477;-71
2023/08/14 12:44:06;;;;;;;3.90;3.07;;;26.20;99.90;;;;;;5036314;28;20466;-71
2023/08/14 12:46:35;;;;;;;4.77;3.63;;;26.20;99.90;;;;;;5036174;28;20458;-71
2023/08/14 12:49:04;;;;;;;5.77;3.40;;;26.20;99.90;;;;;;5036010;28;20441;-71
2023/08/14 12:51:33;;;;;;;6.00;3.50;;;26.20;99.90;;;;;;5036532;28;20447;-71
2023/08/14 12:54:01;;;;;;;4.90;3.50;;;26.20;99.90;;;;;;5036704;28;20455;-71
2023/08/14 12:56:30;;;;;;;5.73;3.43;;;26.40;99.90;;;;;;5036142;28;20500;-71
2023/08/14 12:58:58;;;;;;;6.73;2.90;;;26.40;99.90;;;;;;5036110;28;20538;-71